Time;durP1;ratioP1;P1;durP2;ratioP2;P2;SDS_P1;SDS_P2;PMS_P1;PMS_P2;Temp;Humidity;BMP_temperature;BMP_pressure;BME280_temperature;BME280_humidity;BME280_pressure;Samples;Min_cycle;Max_cycle;Signal;HPM_P1;HPM_P2
2021/11/29 00:01:31;;;;;;;36.17;19.33;;;;;;;;;;4937336;29;20063;-73
2021/11/29 00:04:36;;;;;;;31.90;17.05;;;;;;;;;;4936875;29;20518;-73
2021/11/29 00:07:40;;;;;;;30.25;17.58;;;;;;;;;;4936796;29;20063;-74
2021/11/29 00:10:45;;;;;;;31.33;18.45;;;;;;;;;;4937352;29;20056;-74
2021/11/29 00:13:49;;;;;;;28.58;17.95;;;;;;;;;;4936306;29;20051;-74
2021/11/29 00:16:53;;;;;;;40.78;20.30;;;;;;;;;;4936779;29;20043;-74
2021/11/29 00:19:57;;;;;;;34.28;20.70;;;;;;;;;;4935899;29;20055;-74
2021/11/29 00:23:02;;;;;;;32.83;16.95;;;;;;;;;;4936810;29;20231;-74
2021/11/29 00:26:07;;;;;;;33.20;17.92;;;;;;;;;;4936461;29;20050;-74
2021/11/29 00:29:11;;;;;;;29.30;18.23;;;;;;;;;;4936863;29;20066;-75
2021/11/29 00:32:15;;;;;;;36.65;17.50;;;;;;;;;;4936643;29;20475;-74
2021/11/29 00:35:19;;;;;;;38.10;19.02;;;;;;;;;;4936244;29;20062;-74
2021/11/29 00:38:24;;;;;;;28.48;17.30;;;;;;;;;;4935995;29;20043;-73
2021/11/29 00:41:28;;;;;;;31.92;17.35;;;;;;;;;;4936711;29;20055;-73
2021/11/29 00:44:32;;;;;;;32.83;17.10;;;;;;;;;;4936151;29;20050;-74
2021/11/29 00:47:37;;;;;;;30.55;15.80;;;;;;;;;;4936619;29;20047;-74
2021/11/29 00:50:41;;;;;;;29.55;15.20;;;;;;;;;;4936309;29;20043;-74
2021/11/29 00:53:46;;;;;;;28.77;15.00;;;;;;;;;;4936250;29;20047;-73
2021/11/29 00:56:51;;;;;;;25.70;14.57;;;;;;;;;;4935626;29;20515;-75
2021/11/29 00:59:55;;;;;;;32.65;14.65;;;;;;;;;;4936435;29;20289;-75
2021/11/29 01:03:00;;;;;;;26.17;14.15;;;;;;;;;;4935802;29;20055;-75
2021/11/29 01:06:04;;;;;;;25.48;12.27;;;;;;;;;;4935995;29;20051;-75
2021/11/29 01:09:08;;;;;;;28.02;12.35;;;;;;;;;;4936000;29;20046;-73
2021/11/29 01:12:13;;;;;;;25.00;12.18;;;;;;;;;;4935197;29;20046;-75
2021/11/29 01:15:19;;;;;;;27.63;11.90;;;;;;;;;;4936126;29;20047;-75
2021/11/29 01:18:23;;;;;;;23.90;10.82;;;;;;;;;;4935042;29;20046;-73
2021/11/29 01:21:27;;;;;;;22.83;10.98;;;;;;;;;;4936312;29;20219;-75
2021/11/29 01:24:32;;;;;;;18.63;10.32;;;;;;;;;;4935681;29;20063;-75
2021/11/29 01:27:37;;;;;;;21.92;12.73;;;;;;;;;;4935439;29;20038;-75
2021/11/29 01:30:41;;;;;;;25.92;11.93;;;;;;;;;;4935504;29;20091;-74
2021/11/29 01:33:45;;;;;;;20.02;12.05;;;;;;;;;;4935146;29;20051;-74
2021/11/29 01:36:50;;;;;;;25.48;12.13;;;;;;;;;;4935264;29;20503;-76
2021/11/29 01:39:54;;;;;;;19.33;11.13;;;;;;;;;;4935319;29;20046;-74
2021/11/29 01:42:58;;;;;;;19.85;10.57;;;;;;;;;;4935219;29;20043;-75
2021/11/29 01:46:03;;;;;;;21.83;10.68;;;;;;;;;;4935396;29;20457;-75
2021/11/29 01:49:07;;;;;;;21.23;9.88;;;;;;;;;;4935507;29;20055;-75
2021/11/29 01:52:12;;;;;;;22.60;10.07;;;;;;;;;;4935384;29;20050;-75
2021/11/29 01:55:17;;;;;;;23.83;9.77;;;;;;;;;;4934323;29;20054;-75
2021/11/29 01:58:21;;;;;;;25.17;10.48;;;;;;;;;;4935278;29;20047;-75
2021/11/29 02:01:26;;;;;;;22.58;9.98;;;;;;;;;;4934409;29;20043;-74
2021/11/29 02:04:30;;;;;;;23.05;11.57;;;;;;;;;;4934634;29;20055;-75
2021/11/29 02:07:34;;;;;;;21.83;10.30;;;;;;;;;;4935086;29;20507;-75
2021/11/29 02:10:39;;;;;;;20.08;9.43;;;;;;;;;;4934966;29;20046;-75
2021/11/29 02:13:43;;;;;;;19.67;9.80;;;;;;;;;;4934539;29;20424;-74
2021/11/29 02:16:48;;;;;;;20.20;8.50;;;;;;;;;;4934165;29;20047;-75
2021/11/29 02:19:53;;;;;;;18.98;9.20;;;;;;;;;;4934734;29;20043;-75
2021/11/29 02:22:57;;;;;;;19.02;10.05;;;;;;;;;;4934660;29;20066;-75
2021/11/29 02:26:01;;;;;;;21.50;8.43;;;;;;;;;;4923025;29;20392;-74
2021/11/29 02:29:08;;;;;;;20.13;8.23;;;;;;;;;;4934801;29;20043;-74
2021/11/29 02:32:12;;;;;;;20.17;8.48;;;;;;;;;;4934600;29;20392;-74
2021/11/29 02:35:16;;;;;;;24.08;8.32;;;;;;;;;;4934273;29;20051;-75
2021/11/29 02:38:21;;;;;;;18.98;8.40;;;;;;;;;;4934594;29;20043;-75
2021/11/29 02:41:25;;;;;;;17.05;8.25;;;;;;;;;;4933857;29;20046;-74
2021/11/29 02:44:29;;;;;;;24.90;8.50;;;;;;;;;;4933981;29;20059;-75
2021/11/29 02:47:34;;;;;;;15.70;7.55;;;;;;;;;;4934435;29;20546;-75
2021/11/29 02:50:38;;;;;;;13.27;5.40;;;;;;;;;;4934405;29;20055;-75
2021/11/29 02:53:43;;;;;;;14.65;4.93;;;;;;;;;;4934033;29;20392;-74
2021/11/29 02:56:48;;;;;;;13.20;4.85;;;;;;;;;;4933346;29;20050;-73
2021/11/29 02:59:52;;;;;;;12.13;4.90;;;;;;;;;;4934079;29;20043;-73
2021/11/29 03:03:04;;;;;;;14.88;5.10;;;;;;;;;;4933649;29;20046;-75
2021/11/29 03:06:08;;;;;;;9.32;4.15;;;;;;;;;;4933925;29;20050;-75
2021/11/29 03:09:13;;;;;;;13.57;4.93;;;;;;;;;;4933939;29;20370;-75
2021/11/29 03:12:17;;;;;;;12.02;5.03;;;;;;;;;;4934219;29;20067;-75
2021/11/29 03:15:22;;;;;;;17.88;5.70;;;;;;;;;;4934121;29;20050;-75
2021/11/29 03:18:37;;;;;;;13.10;4.40;;;;;;;;;;4933858;29;20035;-75
2021/11/29 03:21:42;;;;;;;17.10;7.68;;;;;;;;;;4933780;29;20051;-75
2021/11/29 03:24:46;;;;;;;13.23;5.28;;;;;;;;;;4933674;29;20527;-75
2021/11/29 03:27:50;;;;;;;16.02;5.40;;;;;;;;;;4933839;29;20051;-75
2021/11/29 03:30:54;;;;;;;17.15;4.72;;;;;;;;;;4936670;29;20051;-75
2021/11/29 03:34:00;;;;;;;10.02;3.67;;;;;;;;;;4937563;29;20054;-75
2021/11/29 03:37:05;;;;;;;9.50;3.80;;;;;;;;;;4937051;29;20055;-75
2021/11/29 03:40:09;;;;;;;8.68;3.03;;;;;;;;;;4936989;29;20043;-75
2021/11/29 03:43:14;;;;;;;10.48;2.38;;;;;;;;;;4937400;29;20048;-75
2021/11/29 03:46:18;;;;;;;5.60;1.88;;;;;;;;;;4937399;29;20047;-75
2021/11/29 03:49:23;;;;;;;5.30;1.48;;;;;;;;;;4937273;29;20044;-75
2021/11/29 03:52:27;;;;;;;10.20;2.00;;;;;;;;;;4937141;29;20032;-75
2021/11/29 03:55:32;;;;;;;5.72;1.83;;;;;;;;;;4937013;29;20040;-75
2021/11/29 03:58:36;;;;;;;16.63;1.80;;;;;;;;;;4937311;29;20043;-75
2021/11/29 04:01:42;;;;;;;6.57;1.05;;;;;;;;;;4937207;29;20048;-75
2021/11/29 04:04:46;;;;;;;6.47;1.23;;;;;;;;;;4936938;29;20384;-75
2021/11/29 04:07:50;;;;;;;8.85;1.45;;;;;;;;;;4936975;29;20048;-75
2021/11/29 04:10:55;;;;;;;8.63;1.88;;;;;;;;;;4937069;29;20483;-75
2021/11/29 04:13:59;;;;;;;5.63;1.63;;;;;;;;;;4936977;29;20065;-75
2021/11/29 04:17:04;;;;;;;7.63;1.50;;;;;;;;;;4937134;29;20043;-75
2021/11/29 04:20:09;;;;;;;7.50;1.80;;;;;;;;;;4937188;29;20389;-75
2021/11/29 04:23:14;;;;;;;6.20;1.35;;;;;;;;;;4936905;29;20043;-75
2021/11/29 04:26:19;;;;;;;7.50;1.70;;;;;;;;;;4937000;29;20036;-75
2021/11/29 04:29:27;;;;;;;7.72;2.45;;;;;;;;;;4936917;29;20032;-75
2021/11/29 04:32:31;;;;;;;7.82;1.83;;;;;;;;;;4935719;29;20032;-75
2021/11/29 04:35:36;;;;;;;10.48;2.10;;;;;;;;;;4936574;29;20044;-75
2021/11/29 04:38:40;;;;;;;8.00;1.77;;;;;;;;;;4935948;29;20043;-75
2021/11/29 04:41:45;;;;;;;9.40;1.83;;;;;;;;;;4935488;29;20051;-76
2021/11/29 04:44:49;;;;;;;5.00;2.13;;;;;;;;;;4936749;29;20047;-75
2021/11/29 04:47:53;;;;;;;7.35;1.98;;;;;;;;;;4936483;29;20032;-75
2021/11/29 04:50:58;;;;;;;12.18;2.50;;;;;;;;;;4936364;29;20488;-75
2021/11/29 04:54:02;;;;;;;11.23;2.42;;;;;;;;;;4936670;29;20043;-76
2021/11/29 04:57:07;;;;;;;7.60;1.85;;;;;;;;;;4935663;29;20047;-75
2021/11/29 05:00:13;;;;;;;6.03;1.90;;;;;;;;;;4935548;29;20035;-75
2021/11/29 05:03:17;;;;;;;11.63;1.80;;;;;;;;;;4936251;29;20044;-75
2021/11/29 05:06:21;;;;;;;3.45;1.30;;;;;;;;;;4936097;29;20047;-75
2021/11/29 05:09:25;;;;;;;6.80;1.63;;;;;;;;;;4936468;29;20043;-74
2021/11/29 05:12:30;;;;;;;5.47;1.48;;;;;;;;;;4935870;29;20039;-74
2021/11/29 05:15:35;;;;;;;6.80;1.48;;;;;;;;;;4936006;29;20044;-75
2021/11/29 05:18:39;;;;;;;3.63;1.10;;;;;;;;;;4935821;29;20385;-75
2021/11/29 05:21:43;;;;;;;7.53;1.65;;;;;;;;;;4936042;29;20039;-74
2021/11/29 05:24:48;;;;;;;6.05;1.52;;;;;;;;;;4935805;29;20405;-74
2021/11/29 05:27:53;;;;;;;5.50;1.70;;;;;;;;;;4935555;29;20036;-74
2021/11/29 05:30:57;;;;;;;16.58;4.40;;;;;;;;;;4935534;29;20385;-74
2021/11/29 05:34:02;;;;;;;7.18;2.50;;;;;;;;;;4935310;29;20058;-74
2021/11/29 05:37:06;;;;;;;8.75;1.98;;;;;;;;;;4935714;29;20480;-74
2021/11/29 05:40:11;;;;;;;14.23;1.90;;;;;;;;;;4934945;29;20043;-74
2021/11/29 05:43:15;;;;;;;8.02;2.15;;;;;;;;;;4935181;29;20054;-74
2021/11/29 05:46:22;;;;;;;11.18;2.65;;;;;;;;;;4935235;29;20495;-74
2021/11/29 05:49:26;;;;;;;13.00;2.13;;;;;;;;;;4935266;29;20047;-75
2021/11/29 05:52:31;;;;;;;5.15;1.73;;;;;;;;;;4934483;29;20411;-74
2021/11/29 05:55:35;;;;;;;6.55;2.35;;;;;;;;;;4935423;29;20373;-75
2021/11/29 05:58:39;;;;;;;6.93;1.58;;;;;;;;;;4935197;29;20031;-74
2021/11/29 06:01:44;;;;;;;8.50;1.52;;;;;;;;;;4935154;29;20043;-74
2021/11/29 06:04:49;;;;;;;8.43;2.10;;;;;;;;;;4934763;29;20047;-75
2021/11/29 06:07:53;;;;;;;6.50;1.60;;;;;;;;;;4934985;29;20373;-74
2021/11/29 06:10:58;;;;;;;8.52;1.83;;;;;;;;;;4934803;29;20036;-75
2021/11/29 06:14:02;;;;;;;4.78;1.58;;;;;;;;;;4934925;29;20047;-74
2021/11/29 06:17:07;;;;;;;4.80;1.80;;;;;;;;;;4934346;29;20196;-74
2021/11/29 06:20:12;;;;;;;5.45;1.50;;;;;;;;;;4934747;29;20039;-74
2021/11/29 06:23:16;;;;;;;9.13;2.45;;;;;;;;;;4933258;29;20039;-74
2021/11/29 06:26:21;;;;;;;8.32;1.92;;;;;;;;;;4934810;29;20393;-74
2021/11/29 06:29:25;;;;;;;6.57;2.20;;;;;;;;;;4934603;29;20470;-74
2021/11/29 06:32:30;;;;;;;5.40;1.75;;;;;;;;;;4934290;29;20036;-74
2021/11/29 06:35:34;;;;;;;5.70;1.70;;;;;;;;;;4934650;29;20488;-75
2021/11/29 06:38:38;;;;;;;7.22;1.92;;;;;;;;;;4934604;29;20311;-75
2021/11/29 06:41:43;;;;;;;8.52;2.20;;;;;;;;;;4934651;29;20031;-74
2021/11/29 06:44:47;;;;;;;6.30;1.92;;;;;;;;;;4934170;29;20392;-75
2021/11/29 06:47:52;;;;;;;7.15;2.35;;;;;;;;;;4934233;29;20035;-74
2021/11/29 06:50:56;;;;;;;5.47;1.40;;;;;;;;;;4934432;29;20055;-70
2021/11/29 06:54:01;;;;;;;5.47;1.80;;;;;;;;;;4933961;29;20044;-68
2021/11/29 06:57:06;;;;;;;7.32;2.40;;;;;;;;;;4934059;29;20047;-67
2021/11/29 07:00:12;;;;;;;6.90;1.98;;;;;;;;;;4934233;29;20044;-68
2021/11/29 07:03:17;;;;;;;8.20;2.17;;;;;;;;;;4933266;29;20043;-68
2021/11/29 07:06:22;;;;;;;4.30;2.22;;;;;;;;;;4934018;29;20048;-69
2021/11/29 07:09:26;;;;;;;7.57;2.50;;;;;;;;;;4933996;29;20040;-72
2021/11/29 07:12:30;;;;;;;7.82;2.63;;;;;;;;;;4933725;29;20039;-67
2021/11/29 07:15:35;;;;;;;8.52;2.80;;;;;;;;;;4933726;29;20043;-68
2021/11/29 07:18:39;;;;;;;8.77;3.00;;;;;;;;;;4933647;29;20043;-69
2021/11/29 07:21:44;;;;;;;8.82;4.05;;;;;;;;;;4933474;29;20043;-67
2021/11/29 07:24:50;;;;;;;8.40;3.45;;;;;;;;;;4933550;29;20048;-68
2021/11/29 07:27:55;;;;;;;6.32;3.15;;;;;;;;;;4933732;29;20040;-71
2021/11/29 07:30:59;;;;;;;7.45;2.17;;;;;;;;;;4933430;29;20482;-64
2021/11/29 07:34:03;;;;;;;6.28;1.60;;;;;;;;;;4933197;29;20397;-65
2021/11/29 07:37:07;;;;;;;4.82;1.10;;;;;;;;;;4933995;29;20044;-65
2021/11/29 07:40:12;;;;;;;4.78;1.40;;;;;;;;;;4933791;29;20040;-68
2021/11/29 07:43:17;;;;;;;3.42;1.10;;;;;;;;;;4932903;29;20043;-67
2021/11/29 07:46:22;;;;;;;6.65;1.17;;;;;;;;;;4932058;29;20035;-67
2021/11/29 07:49:27;;;;;;;4.10;1.50;;;;;;;;;;4933266;29;20028;-68
2021/11/29 07:52:31;;;;;;;2.45;1.33;;;;;;;;;;4933324;29;20035;-70
2021/11/29 07:55:35;;;;;;;5.00;1.85;;;;;;;;;;4933350;29;20040;-66
2021/11/29 07:58:40;;;;;;;6.20;2.72;;;;;;;;;;4933405;29;20036;-65
2021/11/29 08:01:44;;;;;;;5.82;2.10;;;;;;;;;;4932830;29;20427;-67
2021/11/29 08:04:49;;;;;;;3.67;1.85;;;;;;;;;;4933015;29;20059;-68
2021/11/29 08:07:54;;;;;;;6.90;2.10;;;;;;;;;;4933095;29;20039;-68
2021/11/29 08:10:59;;;;;;;6.28;3.10;;;;;;;;;;4933245;29;20044;-68
2021/11/29 08:14:03;;;;;;;6.78;3.25;;;;;;;;;;4933413;29;20036;-68
2021/11/29 08:17:07;;;;;;;7.68;4.40;;;;;;;;;;4936895;29;20051;-69
2021/11/29 08:20:12;;;;;;;11.43;4.88;;;;;;;;;;4936832;29;20119;-70
2021/11/29 08:23:17;;;;;;;11.35;5.43;;;;;;;;;;4936714;29;20055;-69
2021/11/29 08:26:21;;;;;;;11.10;4.63;;;;;;;;;;4936523;29;20055;-71
2021/11/29 08:29:26;;;;;;;11.35;4.63;;;;;;;;;;4936856;29;20038;-70
2021/11/29 08:32:31;;;;;;;10.82;4.70;;;;;;;;;;4936410;29;20046;-68
2021/11/29 08:35:35;;;;;;;10.40;5.13;;;;;;;;;;4917396;29;20412;-67
2021/11/29 08:38:39;;;;;;;11.43;6.05;;;;;;;;;;4917242;29;20059;-68
2021/11/29 08:41:44;;;;;;;12.30;6.90;;;;;;;;;;4917612;29;20039;-66
2021/11/29 08:44:48;;;;;;;9.88;4.03;;;;;;;;;;4917719;29;20055;-69
2021/11/29 08:47:54;;;;;;;6.97;2.90;;;;;;;;;;4917590;29;20040;-64
2021/11/29 08:50:58;;;;;;;10.20;3.13;;;;;;;;;;4917245;29;20040;-68
2021/11/29 08:54:02;;;;;;;5.28;2.65;;;;;;;;;;4917224;29;20397;-69
2021/11/29 08:57:10;;;;;;;6.95;2.80;;;;;;;;;;4917152;29;20040;-69
2021/11/29 09:00:16;;;;;;;7.35;3.00;;;;;;;;;;4917329;29;20036;-68
2021/11/29 09:03:20;;;;;;;7.75;3.28;;;;;;;;;;4917105;29;20036;-67
2021/11/29 09:06:25;;;;;;;7.22;3.50;;;;;;;;;;4916304;29;20052;-68
2021/11/29 09:09:32;;;;;;;10.88;3.80;;;;;;;;;;4917054;29;20040;-69
2021/11/29 09:12:37;;;;;;;8.35;3.90;;;;;;;;;;4916850;29;20043;-69
2021/11/29 09:15:42;;;;;;;4.72;3.30;;;;;;;;;;4917122;29;20485;-69
2021/11/29 09:18:46;;;;;;;6.97;2.88;;;;;;;;;;4917040;29;20504;-69
2021/11/29 09:21:51;;;;;;;5.65;3.17;;;;;;;;;;4917217;29;20036;-69
2021/11/29 09:24:59;;;;;;;7.13;3.45;;;;;;;;;;4916589;29;20044;-71
2021/11/29 09:28:03;;;;;;;7.65;3.03;;;;;;;;;;4916796;29;20044;-68
2021/11/29 09:31:09;;;;;;;5.20;2.78;;;;;;;;;;4917117;29;20382;-69
2021/11/29 09:34:13;;;;;;;7.85;3.22;;;;;;;;;;4925974;29;20048;-67
2021/11/29 09:37:21;;;;;;;9.25;3.17;;;;;;;;;;4935515;29;20044;-67
2021/11/29 09:40:27;;;;;;;5.20;3.08;;;;;;;;;;4935498;29;20111;-68
2021/11/29 09:43:32;;;;;;;5.07;2.65;;;;;;;;;;4933875;29;20396;-66
2021/11/29 09:46:36;;;;;;;4.25;2.95;;;;;;;;;;4935085;29;20043;-67
2021/11/29 09:49:41;;;;;;;4.13;2.55;;;;;;;;;;4935409;29;20377;-66
2021/11/29 09:52:45;;;;;;;9.13;3.30;;;;;;;;;;4934064;29;20047;-69
2021/11/29 09:55:50;;;;;;;12.13;4.15;;;;;;;;;;4933300;29;20492;-67
2021/11/29 09:58:54;;;;;;;5.60;2.67;;;;;;;;;;4933448;29;20047;-68
2021/11/29 10:01:58;;;;;;;5.50;2.25;;;;;;;;;;4933553;29;20106;-68
2021/11/29 10:05:03;;;;;;;4.80;2.08;;;;;;;;;;4933188;29;20052;-68
2021/11/29 10:08:28;;;;;;;3.13;1.80;;;;;;;;;;4933164;29;20044;-68
2021/11/29 10:11:32;;;;;;;2.90;1.75;;;;;;;;;;4934750;29;20043;-69
2021/11/29 10:14:37;;;;;;;3.22;1.73;;;;;;;;;;4934624;29;20032;-67
2021/11/29 10:17:41;;;;;;;8.50;2.25;;;;;;;;;;4933935;29;20043;-66
2021/11/29 10:20:54;;;;;;;3.22;1.73;;;;;;;;;;4934598;29;20040;-67
2021/11/29 10:23:59;;;;;;;5.50;2.88;;;;;;;;;;4934283;29;20052;-66
2021/11/29 10:27:03;;;;;;;3.70;2.00;;;;;;;;;;4934279;29;20044;-67
2021/11/29 10:30:08;;;;;;;3.83;2.38;;;;;;;;;;4932484;29;20043;-66
2021/11/29 10:33:15;;;;;;;7.35;2.63;;;;;;;;;;4931428;29;20039;-65
2021/11/29 10:36:19;;;;;;;6.45;2.78;;;;;;;;;;4931720;29;20052;-66
2021/11/29 10:39:31;;;;;;;7.43;3.97;;;;;;;;;;4931894;29;20146;-68
2021/11/29 10:42:36;;;;;;;9.57;4.07;;;;;;;;;;4932651;29;20052;-65
2021/11/29 10:45:40;;;;;;;6.95;3.00;;;;;;;;;;4932617;29;20051;-67
2021/11/29 10:48:44;;;;;;;10.15;5.15;;;;;;;;;;4934242;29;20047;-65
2021/11/29 10:51:50;;;;;;;14.77;5.75;;;;;;;;;;4934092;29;20055;-65
2021/11/29 10:54:55;;;;;;;6.10;3.00;;;;;;;;;;4933869;29;20505;-64
2021/11/29 10:57:59;;;;;;;8.13;3.28;;;;;;;;;;4933363;29;20369;-64
2021/11/29 11:01:03;;;;;;;6.10;2.97;;;;;;;;;;4933473;29;20043;-64
2021/11/29 11:04:09;;;;;;;6.63;3.10;;;;;;;;;;4933685;29;20040;-65
2021/11/29 11:07:20;;;;;;;6.10;3.28;;;;;;;;;;4933729;29;20571;-65
2021/11/29 11:10:33;;;;;;;7.35;3.58;;;;;;;;;;4933647;29;20044;-65
2021/11/29 11:13:56;;;;;;;8.95;4.20;;;;;;;;;;4933735;29;20553;-65
2021/11/29 11:17:02;;;;;;;10.25;4.00;;;;;;;;;;4932749;29;20036;-65
2021/11/29 11:20:15;;;;;;;8.93;3.58;;;;;;;;;;4933713;29;20051;-67
2021/11/29 11:23:27;;;;;;;6.90;4.22;;;;;;;;;;4933718;29;20035;-65
2021/11/29 11:26:34;;;;;;;6.07;3.97;;;;;;;;;;4934046;29;20052;-64
2021/11/29 11:29:38;;;;;;;7.57;4.22;;;;;;;;;;4933809;29;20035;-66
2021/11/29 11:32:45;;;;;;;5.82;3.83;;;;;;;;;;4933778;29;20040;-67
2021/11/29 11:35:53;;;;;;;7.60;4.40;;;;;;;;;;4933711;29;20055;-65
2021/11/29 11:39:06;;;;;;;10.05;5.88;;;;;;;;;;4933947;29;20051;-65
2021/11/29 11:42:11;;;;;;;13.90;4.80;;;;;;;;;;4932432;29;20494;-66
2021/11/29 11:45:17;;;;;;;5.60;3.92;;;;;;;;;;4932633;29;20412;-66
2021/11/29 11:48:21;;;;;;;7.20;3.80;;;;;;;;;;4933867;29;20472;-65
2021/11/29 11:51:26;;;;;;;6.75;3.83;;;;;;;;;;4936234;29;20487;-65
2021/11/29 11:54:30;;;;;;;5.20;3.40;;;;;;;;;;4937652;29;20039;-64
2021/11/29 11:57:35;;;;;;;7.60;3.90;;;;;;;;;;4936904;29;20048;-65
2021/11/29 12:00:42;;;;;;;7.55;4.38;;;;;;;;;;4935781;29;20039;-65
2021/11/29 12:03:48;;;;;;;33.25;16.20;;;;;;;;;;4935413;29;20048;-65
2021/11/29 12:06:53;;;;;;;11.98;5.85;;;;;;;;;;4935198;29;20057;-64
2021/11/29 12:10:17;;;;;;;10.70;5.38;;;;;;;;;;4935453;29;20047;-65
2021/11/29 12:13:24;;;;;;;8.60;5.97;;;;;;;;;;4935955;29;20043;-64
2021/11/29 12:16:37;;;;;;;10.57;6.72;;;;;;;;;;4936817;29;20480;-65
2021/11/29 12:19:43;;;;;;;11.80;6.72;;;;;;;;;;4936976;29;20531;-65
2021/11/29 12:22:48;;;;;;;9.90;6.88;;;;;;;;;;4936884;29;20535;-65
2021/11/29 12:25:52;;;;;;;13.13;6.47;;;;;;;;;;4936147;29;20051;-65
2021/11/29 12:28:57;;;;;;;10.00;6.65;;;;;;;;;;4934338;29;20050;-65
2021/11/29 12:32:04;;;;;;;11.15;6.90;;;;;;;;;;4935243;29;20058;-65
2021/11/29 12:35:09;;;;;;;12.77;8.27;;;;;;;;;;4935203;29;20051;-65
2021/11/29 12:38:18;;;;;;;12.00;9.25;;;;;;;;;;4935772;29;20047;-63
2021/11/29 12:41:34;;;;;;;15.75;9.07;;;;;;;;;;4936171;29;20051;-64
2021/11/29 12:44:47;;;;;;;13.15;8.95;;;;;;;;;;4936507;29;20043;-64
2021/11/29 12:47:52;;;;;;;14.98;9.27;;;;;;;;;;4936349;29;20050;-65
2021/11/29 12:50:56;;;;;;;17.38;11.30;;;;;;;;;;4935993;29;20039;-65
2021/11/29 12:54:01;;;;;;;13.60;9.95;;;;;;;;;;4936308;29;20050;-64
2021/11/29 12:57:26;;;;;;;14.73;9.38;;;;;;;;;;4936593;29;20046;-65
2021/11/29 13:00:30;;;;;;;13.57;8.65;;;;;;;;;;4937058;29;20054;-65
2021/11/29 13:03:41;;;;;;;12.65;8.65;;;;;;;;;;4936111;29;20054;-65
2021/11/29 13:06:52;;;;;;;11.98;8.40;;;;;;;;;;4936117;29;20400;-65
2021/11/29 13:09:56;;;;;;;15.07;8.83;;;;;;;;;;4935066;29;20058;-67
2021/11/29 13:13:19;;;;;;;13.60;9.07;;;;;;;;;;4935978;29;20055;-67
2021/11/29 13:16:24;;;;;;;11.13;8.75;;;;;;;;;;4935964;29;20042;-67
2021/11/29 13:19:42;;;;;;;15.18;10.13;;;;;;;;;;4935952;29;20063;-67
2021/11/29 13:22:46;;;;;;;17.45;10.52;;;;;;;;;;4935977;29;20055;-67
2021/11/29 13:25:50;;;;;;;16.77;10.45;;;;;;;;;;4935909;29;20054;-66
2021/11/29 13:28:56;;;;;;;21.20;11.50;;;;;;;;;;4935913;29;20050;-66
2021/11/29 13:32:02;;;;;;;17.15;11.75;;;;;;;;;;4935564;29;20046;-65
2021/11/29 13:35:08;;;;;;;19.30;13.35;;;;;;;;;;4935376;29;20140;-65
2021/11/29 13:38:13;;;;;;;20.10;12.18;;;;;;;;;;4935753;29;20062;-68
2021/11/29 13:41:19;;;;;;;19.48;11.73;;;;;;;;;;4935695;29;20050;-65
2021/11/29 13:44:25;;;;;;;12.20;8.77;;;;;;;;;;4934462;29;20051;-66
2021/11/29 13:47:31;;;;;;;11.68;8.48;;;;;;;;;;4935265;29;20499;-65
2021/11/29 13:50:39;;;;;;;14.15;8.20;;;;;;;;;;4935514;29;20043;-65
2021/11/29 13:53:45;;;;;;;11.57;8.02;;;;;;;;;;4935414;29;20042;-66
2021/11/29 13:56:49;;;;;;;12.57;9.00;;;;;;;;;;4935194;29;20047;-66
2021/11/29 13:59:54;;;;;;;16.10;11.27;;;;;;;;;;4935346;29;20054;-66
2021/11/29 14:03:05;;;;;;;14.02;10.07;;;;;;;;;;4934121;29;20043;-66
2021/11/29 14:06:09;;;;;;;17.55;11.77;;;;;;;;;;4935140;29;20059;-65
2021/11/29 14:09:17;;;;;;;16.15;12.00;;;;;;;;;;4935383;29;20046;-66
2021/11/29 14:12:29;;;;;;;15.15;10.95;;;;;;;;;;4934817;29;20137;-65
2021/11/29 14:15:53;;;;;;;21.15;14.55;;;;;;;;;;4934906;29;20047;-66
2021/11/29 14:19:01;;;;;;;32.60;20.80;;;;;;;;;;4934790;29;20121;-66
2021/11/29 14:22:06;;;;;;;34.42;22.63;;;;;;;;;;4934871;29;20050;-67
2021/11/29 14:25:10;;;;;;;33.03;19.73;;;;;;;;;;4934649;29;20058;-66
2021/11/29 14:28:14;;;;;;;27.77;17.73;;;;;;;;;;4934753;29;20054;-64
2021/11/29 14:31:19;;;;;;;22.08;15.27;;;;;;;;;;4934676;29;20400;-66
2021/11/29 14:34:24;;;;;;;24.27;14.02;;;;;;;;;;4934339;29;20050;-66
2021/11/29 14:37:33;;;;;;;21.67;14.23;;;;;;;;;;4933675;29;20050;-68
2021/11/29 14:40:39;;;;;;;20.50;13.93;;;;;;;;;;4934686;29;20070;-67
2021/11/29 14:43:54;;;;;;;21.42;14.63;;;;;;;;;;4934636;29;20058;-66
2021/11/29 14:47:08;;;;;;;24.83;15.25;;;;;;;;;;4933310;29;20420;-68
2021/11/29 14:50:19;;;;;;;24.80;14.65;;;;;;;;;;4934371;29;20055;-67
2021/11/29 14:53:24;;;;;;;23.42;14.77;;;;;;;;;;4934386;29;20070;-68
2021/11/29 14:56:32;;;;;;;26.65;15.20;;;;;;;;;;4934208;29;20051;-69
2021/11/29 14:59:36;;;;;;;23.67;15.20;;;;;;;;;;4934434;29;20581;-68
2021/11/29 15:02:41;;;;;;;21.33;14.38;;;;;;;;;;4934183;29;20523;-67
2021/11/29 15:05:47;;;;;;;25.17;15.88;;;;;;;;;;4933487;29;20050;-68
2021/11/29 15:08:56;;;;;;;26.88;16.25;;;;;;;;;;4933020;29;20059;-67
2021/11/29 15:12:01;;;;;;;17.92;10.90;;;;;;;;;;4933729;29;20043;-68
2021/11/29 15:15:35;;;;;;;23.63;12.88;;;;;;;;;;4934217;29;20051;-68
2021/11/29 15:18:39;;;;;;;21.30;12.48;;;;;;;;;;4934160;29;20050;-67
2021/11/29 15:21:44;;;;;;;17.90;12.20;;;;;;;;;;4933578;29;20050;-65
2021/11/29 15:24:53;;;;;;;22.63;13.65;;;;;;;;;;4932540;29;20063;-65
2021/11/29 15:28:12;;;;;;;20.80;12.63;;;;;;;;;;4933613;29;20120;-66
2021/11/29 15:31:27;;;;;;;22.67;14.15;;;;;;;;;;4933881;29;20051;-65
2021/11/29 15:34:31;;;;;;;19.45;14.18;;;;;;;;;;4933053;29;20415;-66
2021/11/29 15:37:37;;;;;;;20.25;12.63;;;;;;;;;;4933950;29;20059;-65
2021/11/29 15:40:43;;;;;;;19.55;13.10;;;;;;;;;;4933787;29;20059;-67
2021/11/29 15:43:50;;;;;;;21.42;14.32;;;;;;;;;;4933770;29;20047;-66
2021/11/29 15:47:05;;;;;;;18.17;13.02;;;;;;;;;;4933833;29;20506;-66
2021/11/29 15:50:10;;;;;;;35.25;21.55;;;;;;;;;;4933601;29;20203;-68
2021/11/29 15:53:14;;;;;;;19.63;11.75;;;;;;;;;;4933661;29;20054;-67
2021/11/29 15:56:19;;;;;;;16.38;10.73;;;;;;;;;;4933697;29;20043;-66
2021/11/29 15:59:23;;;;;;;18.88;13.00;;;;;;;;;;4933631;29;20055;-65
2021/11/29 16:02:29;;;;;;;16.88;10.82;;;;;;;;;;4933488;29;20051;-65
2021/11/29 16:05:34;;;;;;;19.27;13.02;;;;;;;;;;4932702;29;20404;-65
2021/11/29 16:08:38;;;;;;;19.13;13.07;;;;;;;;;;4933419;29;20509;-65
2021/11/29 16:11:43;;;;;;;22.38;16.25;;;;;;;;;;4933172;29;20055;-64
2021/11/29 16:14:47;;;;;;;14.77;10.10;;;;;;;;;;4933934;29;20404;-66
2021/11/29 16:17:51;;;;;;;15.52;9.85;;;;;;;;;;4933448;29;20059;-66
2021/11/29 16:20:56;;;;;;;18.20;13.00;;;;;;;;;;4933310;29;20059;-66
2021/11/29 16:24:01;;;;;;;23.02;15.70;;;;;;;;;;4933562;29;20487;-65
2021/11/29 16:27:05;;;;;;;17.25;11.13;;;;;;;;;;4933120;29;20062;-67
2021/11/29 16:30:10;;;;;;;24.83;15.57;;;;;;;;;;4933280;29;20039;-67
2021/11/29 16:33:15;;;;;;;19.60;13.43;;;;;;;;;;4933028;29;20046;-66
2021/11/29 16:36:19;;;;;;;28.10;14.20;;;;;;;;;;4933968;29;20052;-68
2021/11/29 16:39:24;;;;;;;25.02;15.93;;;;;;;;;;4936544;29;20062;-67
2021/11/29 16:42:28;;;;;;;35.42;22.80;;;;;;;;;;4936663;29;20047;-67
2021/11/29 16:45:32;;;;;;;33.67;20.80;;;;;;;;;;4935600;29;20062;-66
2021/11/29 16:48:37;;;;;;;23.85;14.45;;;;;;;;;;4936368;29;20046;-67
2021/11/29 16:51:41;;;;;;;23.20;14.55;;;;;;;;;;4936280;29;20051;-68
2021/11/29 16:54:45;;;;;;;27.98;18.38;;;;;;;;;;4936591;29;20428;-66
2021/11/29 16:57:50;;;;;;;25.27;17.48;;;;;;;;;;4936425;29;20531;-67
2021/11/29 17:00:54;;;;;;;28.83;18.90;;;;;;;;;;4936415;29;20054;-67
2021/11/29 17:03:59;;;;;;;31.48;20.27;;;;;;;;;;4936435;29;20055;-68
2021/11/29 17:07:04;;;;;;;34.63;23.13;;;;;;;;;;4936234;29;20055;-67
2021/11/29 17:10:09;;;;;;;37.33;24.63;;;;;;;;;;4935979;29;20475;-67
2021/11/29 17:13:14;;;;;;;35.28;22.52;;;;;;;;;;4936245;29;20400;-67
2021/11/29 17:16:19;;;;;;;39.63;25.95;;;;;;;;;;4936136;29;20051;-66
2021/11/29 17:19:23;;;;;;;38.80;26.23;;;;;;;;;;4936105;29;20518;-66
2021/11/29 17:22:27;;;;;;;39.22;27.05;;;;;;;;;;4936008;29;20388;-67
2021/11/29 17:25:33;;;;;;;42.00;26.83;;;;;;;;;;4935415;29;20074;-66
2021/11/29 17:28:37;;;;;;;44.63;31.10;;;;;;;;;;4935364;29;20420;-65
2021/11/29 17:31:42;;;;;;;43.38;28.30;;;;;;;;;;4935750;29;20050;-65
2021/11/29 17:34:46;;;;;;;41.47;28.50;;;;;;;;;;4934460;29;20420;-67
2021/11/29 17:37:50;;;;;;;42.13;29.27;;;;;;;;;;4934690;29;20116;-67
2021/11/29 17:40:55;;;;;;;45.00;29.85;;;;;;;;;;4935614;29;20074;-68
2021/11/29 17:43:59;;;;;;;42.90;29.70;;;;;;;;;;4934773;29;20054;-68
2021/11/29 17:47:03;;;;;;;52.80;35.08;;;;;;;;;;4934939;29;20054;-68
2021/11/29 17:50:11;;;;;;;52.92;35.63;;;;;;;;;;4933985;29;20038;-65
2021/11/29 17:53:15;;;;;;;53.63;32.65;;;;;;;;;;4935076;29;20051;-68
2021/11/29 17:56:19;;;;;;;54.20;34.05;;;;;;;;;;4935261;29;20046;-67
2021/11/29 17:59:24;;;;;;;52.50;36.25;;;;;;;;;;4935090;29;20047;-69
2021/11/29 18:02:28;;;;;;;61.30;40.67;;;;;;;;;;4934225;29;20042;-66
2021/11/29 18:05:33;;;;;;;54.58;35.65;;;;;;;;;;4934827;29;20451;-66
2021/11/29 18:15:15;;;;;;;62.63;40.25;;;;;;;;;;4934865;29;20059;-69
2021/11/29 18:18:19;;;;;;;88.88;57.70;;;;;;;;;;4934335;29;20397;-70
2021/11/29 18:21:24;;;;;;;52.92;35.30;;;;;;;;;;4932691;29;20051;-70
2021/11/29 18:24:31;;;;;;;30.05;19.70;;;;;;;;;;4933942;29;20055;-70